createdAt,value
2023-10-24T00:01:21.295Z,8.00
2023-10-24T00:03:48.313Z,10.57
2023-10-24T00:06:16.553Z,5.22
2023-10-24T00:08:43.600Z,7.32
2023-10-24T00:11:11.014Z,6.05
2023-10-24T00:13:38.001Z,5.45
2023-10-24T00:16:05.333Z,5.53
2023-10-24T00:18:32.295Z,6.32
2023-10-24T00:20:59.996Z,6.47
2023-10-24T00:23:27.179Z,4.20
2023-10-24T00:25:54.108Z,7.82
2023-10-24T00:28:21.153Z,3.92
2023-10-24T00:30:49.761Z,5.45
2023-10-24T00:33:16.756Z,6.53
2023-10-24T00:35:44.456Z,3.50
2023-10-24T00:38:11.441Z,6.05
2023-10-24T00:40:38.810Z,5.53
2023-10-24T00:43:06.791Z,7.20
2023-10-24T00:45:37.346Z,3.17
2023-10-24T00:48:06.393Z,4.60
2023-10-24T00:50:33.830Z,3.38
2023-10-24T00:53:02.558Z,6.22
2023-10-24T00:55:31.651Z,4.18
2023-10-24T00:58:01.178Z,8.13
2023-10-24T01:00:28.634Z,2.65
2023-10-24T01:02:56.745Z,7.72
2023-10-24T01:05:25.021Z,6.63
2023-10-24T01:07:52.147Z,5.82
2023-10-24T01:10:19.287Z,7.43
2023-10-24T01:12:46.426Z,6.22
2023-10-24T01:15:13.599Z,5.57
2023-10-24T01:17:50.975Z,6.07
2023-10-24T01:20:18.790Z,4.47
2023-10-24T01:22:47.349Z,6.47
2023-10-24T01:25:15.837Z,5.72
2023-10-24T01:27:44.401Z,9.27
2023-10-24T01:30:13.159Z,5.30
2023-10-24T01:32:40.587Z,5.30
2023-10-24T01:35:09.317Z,4.68
2023-10-24T01:37:37.301Z,2.50
2023-10-24T01:40:08.209Z,7.68
2023-10-24T01:42:38.352Z,3.92
2023-10-24T01:45:09.893Z,6.63
2023-10-24T01:47:40.759Z,4.60
2023-10-24T01:50:11.055Z,5.80
2023-10-24T01:52:40.635Z,6.78
2023-10-24T01:55:07.906Z,5.10
2023-10-24T01:57:35.037Z,5.13
2023-10-24T02:00:02.370Z,6.53
2023-10-24T02:02:29.666Z,4.60
2023-10-24T02:04:58.585Z,4.13
2023-10-24T02:07:28.907Z,5.68
2023-10-24T02:09:56.126Z,6.05
2023-10-24T02:12:25.323Z,3.20
2023-10-24T02:14:55.387Z,4.78
2023-10-24T02:17:22.361Z,4.78
2023-10-24T02:19:49.925Z,6.93
2023-10-24T02:22:16.964Z,5.32
2023-10-24T02:24:43.873Z,5.93
2023-10-24T02:27:10.794Z,3.72
2023-10-24T02:29:37.988Z,6.82
2023-10-24T02:32:05.185Z,7.57
2023-10-24T02:34:32.202Z,6.35
2023-10-24T02:36:59.223Z,6.10
2023-10-24T02:39:26.131Z,12.70
2023-10-24T02:41:53.205Z,9.48
2023-10-24T02:44:21.901Z,10.30
2023-10-24T02:46:48.970Z,6.18
2023-10-24T02:49:16.264Z,6.30
2023-10-24T02:51:43.371Z,3.08
2023-10-24T02:54:10.378Z,5.32
2023-10-24T02:56:37.338Z,6.80
2023-10-24T02:59:05.384Z,4.00
2023-10-24T03:01:32.415Z,5.50
2023-10-24T03:03:59.531Z,7.10
2023-10-24T03:06:26.540Z,7.22
2023-10-24T03:08:53.506Z,5.57
2023-10-24T03:11:25.007Z,6.70
2023-10-24T03:13:55.536Z,7.70
2023-10-24T03:16:23.594Z,4.65
2023-10-24T03:18:50.949Z,8.52
2023-10-24T03:21:17.986Z,6.47
2023-10-24T03:23:47.590Z,8.95
2023-10-24T03:26:14.502Z,10.98
2023-10-24T03:28:41.757Z,5.68
2023-10-24T03:31:09.693Z,6.55
2023-10-24T03:33:36.847Z,6.72
2023-10-24T03:36:04.399Z,6.32
2023-10-24T03:38:32.330Z,6.15
2023-10-24T03:40:59.616Z,3.80
2023-10-24T03:43:26.958Z,10.35
2023-10-24T03:45:53.970Z,7.32
2023-10-24T03:48:20.901Z,8.82
2023-10-24T03:50:50.009Z,8.07
2023-10-24T03:53:17.206Z,11.48
2023-10-24T03:55:44.404Z,7.13
2023-10-24T03:58:11.399Z,6.05
2023-10-24T04:00:38.863Z,7.30
2023-10-24T04:03:06.007Z,5.30
2023-10-24T04:05:34.894Z,8.73
2023-10-24T04:08:02.780Z,8.50
2023-10-24T04:10:29.910Z,5.78
2023-10-24T04:12:56.946Z,8.00
2023-10-24T04:15:25.035Z,6.95
2023-10-24T04:17:52.549Z,4.35
2023-10-24T04:20:20.158Z,4.32
2023-10-24T04:22:50.354Z,7.30
2023-10-24T04:25:17.494Z,4.07
2023-10-24T04:27:44.518Z,8.70
2023-10-24T04:30:11.935Z,7.88
2023-10-24T04:32:39.158Z,7.45
2023-10-24T04:35:07.153Z,9.77
2023-10-24T04:37:34.217Z,11.35
2023-10-24T04:40:01.283Z,10.73
2023-10-24T04:42:28.276Z,6.07
2023-10-24T04:44:56.534Z,9.40
2023-10-24T04:47:23.534Z,10.73
2023-10-24T04:49:50.700Z,8.20
2023-10-24T04:52:17.891Z,6.70
2023-10-24T04:54:45.548Z,8.68
2023-10-24T04:57:12.816Z,4.82
2023-10-24T04:59:40.082Z,6.30
2023-10-24T05:02:07.161Z,5.43
2023-10-24T05:04:36.013Z,9.35
2023-10-24T05:07:03.033Z,6.50
2023-10-24T05:09:29.930Z,8.25
2023-10-24T05:11:56.956Z,9.32
2023-10-24T05:14:23.987Z,4.90
2023-10-24T05:16:50.957Z,9.35
2023-10-24T05:19:17.949Z,8.15
2023-10-24T05:21:44.940Z,9.45
2023-10-24T05:24:12.055Z,7.35
2023-10-24T05:26:39.368Z,9.10
2023-10-24T05:29:06.531Z,8.70
2023-10-24T05:31:33.526Z,9.68
2023-10-24T05:34:00.563Z,7.82
2023-10-24T05:36:27.739Z,7.68
2023-10-24T05:38:56.195Z,7.28
2023-10-24T05:41:23.374Z,10.88
2023-10-24T05:43:50.613Z,7.97
2023-10-24T05:46:17.736Z,7.03
2023-10-24T05:48:45.201Z,8.38
2023-10-24T05:51:25.735Z,6.88
2023-10-24T05:53:52.882Z,5.70
2023-10-24T05:56:19.897Z,13.40
2023-10-24T05:58:47.403Z,8.23
2023-10-24T06:01:15.392Z,12.18
2023-10-24T06:03:42.381Z,9.00
2023-10-24T06:06:09.869Z,4.50
2023-10-24T06:08:37.188Z,9.15
2023-10-24T06:11:05.170Z,5.80
2023-10-24T06:13:33.170Z,8.45
2023-10-24T06:16:15.099Z,9.18
2023-10-24T06:18:42.026Z,7.00
2023-10-24T06:21:10.046Z,12.95
2023-10-24T06:23:39.143Z,6.75
2023-10-24T06:26:13.427Z,7.20
2023-10-24T06:28:40.751Z,5.50
2023-10-24T06:31:07.861Z,8.35
2023-10-24T06:33:36.180Z,3.05
2023-10-24T06:36:06.324Z,10.30
2023-10-24T06:38:33.281Z,7.82
2023-10-24T06:41:00.526Z,4.75
2023-10-24T06:43:28.109Z,8.38
2023-10-24T06:45:55.459Z,9.23
2023-10-24T06:48:22.464Z,6.55
2023-10-24T06:50:50.252Z,11.60
2023-10-24T06:53:17.185Z,15.85
2023-10-24T06:55:44.640Z,9.75
2023-10-24T06:58:11.710Z,7.25
2023-10-24T07:00:38.742Z,4.93
2023-10-24T07:03:05.776Z,2.10
2023-10-24T07:05:33.900Z,4.07
2023-10-24T07:08:00.977Z,3.97
2023-10-24T07:10:28.000Z,6.85
2023-10-24T07:12:54.985Z,4.03
2023-10-24T07:15:22.115Z,6.35
2023-10-24T07:17:49.150Z,8.88
2023-10-24T07:20:16.450Z,3.58
2023-10-24T07:22:43.426Z,4.63
2023-10-24T07:25:10.706Z,2.50
2023-10-24T07:27:37.687Z,4.50
2023-10-24T07:30:05.106Z,4.75
2023-10-24T07:32:32.084Z,3.70
2023-10-24T07:34:59.895Z,7.22
2023-10-24T07:37:27.178Z,5.45
2023-10-24T07:39:54.853Z,3.33
2023-10-24T07:42:22.396Z,8.25
2023-10-24T07:44:49.575Z,6.53
2023-10-24T07:47:16.655Z,7.88
2023-10-24T07:49:43.890Z,4.97
2023-10-24T07:52:10.854Z,4.10
2023-10-24T07:54:37.781Z,1.67
2023-10-24T07:57:06.154Z,3.45
2023-10-24T07:59:33.485Z,1.88
2023-10-24T08:02:00.927Z,3.80
2023-10-24T08:04:28.581Z,4.82
2023-10-24T08:06:57.056Z,4.38
2023-10-24T08:09:23.982Z,6.45
2023-10-24T08:11:51.000Z,3.45
2023-10-24T08:14:17.970Z,3.47
2023-10-24T08:16:45.062Z,7.43
2023-10-24T08:19:12.252Z,9.27
2023-10-24T08:21:40.202Z,7.72
2023-10-24T08:24:07.426Z,5.32
2023-10-24T08:26:34.435Z,4.93
2023-10-24T08:29:01.497Z,6.57
2023-10-24T08:31:29.234Z,5.72
2023-10-24T08:33:56.544Z,6.95
2023-10-24T08:36:23.549Z,4.10
2023-10-24T08:38:50.586Z,8.75
2023-10-24T08:41:17.673Z,8.35
2023-10-24T08:43:45.797Z,10.50
2023-10-24T08:46:13.126Z,8.52
2023-10-24T08:48:40.216Z,9.20
2023-10-24T08:51:07.728Z,6.20
2023-10-24T08:53:34.938Z,6.80
2023-10-24T08:56:03.990Z,6.90
2023-10-24T08:58:34.953Z,11.27
2023-10-24T09:01:02.745Z,6.00
2023-10-24T09:03:30.911Z,6.22
2023-10-24T09:05:59.212Z,4.25
2023-10-24T09:08:26.841Z,4.88
2023-10-24T09:10:54.052Z,6.63
2023-10-24T09:13:21.153Z,2.65
2023-10-24T09:16:10.050Z,3.63
2023-10-24T09:18:48.917Z,4.03
2023-10-24T09:21:16.204Z,3.97
2023-10-24T09:23:43.171Z,4.43
2023-10-24T09:26:12.408Z,4.10
2023-10-24T09:28:40.911Z,5.57
2023-10-24T09:31:11.653Z,3.33
2023-10-24T09:33:38.842Z,2.33
2023-10-24T09:38:44.122Z,3.50
2023-10-24T09:41:12.394Z,3.92
2023-10-24T09:43:48.583Z,3.50
2023-10-24T09:46:26.347Z,2.13
2023-10-24T09:48:55.488Z,3.65
2023-10-24T09:51:23.847Z,3.40
2023-10-24T09:53:51.292Z,1.98
2023-10-24T09:56:21.059Z,3.28
2023-10-24T09:58:48.478Z,2.60
2023-10-24T10:01:15.783Z,4.65
2023-10-24T10:03:45.066Z,5.25
2023-10-24T10:06:26.276Z,3.60
2023-10-24T10:09:00.731Z,4.43
2023-10-24T10:11:29.169Z,3.90
2023-10-24T10:14:08.829Z,2.47
2023-10-24T10:17:00.509Z,7.82
2023-10-24T10:19:46.390Z,3.58
2023-10-24T10:22:34.552Z,2.33
2023-10-24T10:25:39.424Z,4.00
2023-10-24T10:28:32.352Z,3.70
2023-10-24T10:32:38.997Z,2.20
2023-10-24T10:34:19.931Z,3.63
2023-10-24T10:36:56.321Z,5.32
2023-10-24T10:39:23.388Z,2.72
2023-10-24T10:41:50.385Z,3.95
2023-10-24T10:44:45.344Z,5.22
2023-10-24T10:47:15.173Z,3.22
2023-10-24T10:49:50.259Z,3.92
2023-10-24T10:52:34.411Z,2.40
2023-10-24T10:55:06.834Z,2.40
2023-10-24T10:58:01.511Z,3.28
2023-10-24T11:00:40.246Z,1.55
2023-10-24T11:03:29.073Z,3.22
2023-10-24T11:05:56.191Z,2.60
2023-10-24T11:08:24.764Z,2.55
2023-10-24T11:11:01.496Z,3.00
2023-10-24T11:13:35.251Z,2.28
2023-10-24T11:16:03.745Z,2.85
2023-10-24T11:18:35.140Z,1.85
2023-10-24T11:21:05.039Z,2.45
2023-10-24T11:23:33.829Z,2.55
2023-10-24T11:26:01.623Z,5.70
2023-10-24T11:28:29.445Z,1.50
2023-10-24T11:31:16.931Z,4.70
2023-10-24T11:33:43.965Z,1.48
2023-10-24T11:36:10.934Z,2.38
2023-10-24T11:38:37.869Z,2.15
2023-10-24T11:41:04.866Z,1.95
2023-10-24T11:43:33.719Z,1.58
2023-10-24T11:46:00.882Z,3.78
2023-10-24T11:48:27.990Z,1.58
2023-10-24T11:50:55.021Z,0.80
2023-10-24T11:53:23.500Z,2.35
2023-10-24T11:55:51.528Z,2.58
2023-10-24T11:58:19.044Z,2.85
2023-10-24T12:00:46.110Z,3.63
2023-10-24T12:03:13.754Z,1.50
2023-10-24T12:05:53.404Z,1.00
2023-10-24T12:08:25.356Z,3.55
2023-10-24T12:10:56.995Z,3.80
2023-10-24T12:13:27.438Z,3.90
2023-10-24T12:15:54.534Z,3.65
2023-10-24T12:18:23.491Z,1.45
2023-10-24T12:20:50.580Z,2.05
2023-10-24T12:23:18.175Z,1.85
2023-10-24T12:25:45.143Z,1.58
2023-10-24T12:28:12.123Z,2.30
2023-10-24T12:30:39.066Z,2.55
2023-10-24T12:33:06.065Z,3.72
2023-10-24T12:35:33.070Z,1.70
2023-10-24T12:38:00.952Z,1.83
2023-10-24T12:40:27.980Z,2.13
2023-10-24T12:42:54.984Z,2.38
2023-10-24T12:45:25.160Z,3.78
2023-10-24T12:47:54.779Z,1.55
2023-10-24T12:50:21.896Z,1.67
2023-10-24T12:52:48.881Z,3.55
2023-10-24T12:55:16.715Z,1.92
2023-10-24T12:57:43.640Z,0.75
2023-10-24T13:00:12.066Z,2.33
2023-10-24T13:02:39.379Z,1.75
2023-10-24T13:05:06.709Z,2.22
2023-10-24T13:07:34.741Z,1.55
2023-10-24T13:10:01.856Z,2.47
2023-10-24T13:12:29.173Z,2.03
2023-10-24T13:14:56.316Z,2.15
2023-10-24T13:17:23.336Z,3.25
2023-10-24T13:19:50.857Z,2.97
2023-10-24T13:22:18.810Z,0.90
2023-10-24T13:24:45.901Z,3.58
2023-10-24T13:27:14.571Z,2.47
2023-10-24T13:29:41.665Z,2.42
2023-10-24T13:32:09.080Z,2.65
2023-10-24T13:37:07.556Z,2.90
2023-10-24T13:39:34.797Z,1.42
2023-10-24T13:42:04.644Z,2.45
2023-10-24T13:44:31.700Z,2.00
2023-10-24T13:46:58.825Z,1.70
2023-10-24T13:49:26.127Z,1.60
2023-10-24T13:51:53.566Z,1.85
2023-10-24T13:54:20.653Z,2.20
2023-10-24T13:56:47.624Z,2.03
2023-10-24T13:59:14.879Z,2.38
2023-10-24T14:01:42.526Z,2.03
2023-10-24T14:04:09.597Z,1.42
2023-10-24T14:06:36.615Z,2.60
2023-10-24T14:09:04.226Z,2.47
2023-10-24T14:11:31.172Z,0.60
2023-10-24T14:13:58.199Z,2.70
2023-10-24T14:16:25.440Z,1.75
2023-10-24T14:18:52.391Z,1.83
2023-10-24T14:21:19.754Z,1.30
2023-10-24T14:23:46.758Z,2.80
2023-10-24T14:26:14.157Z,1.80
2023-10-24T14:28:41.210Z,0.93
2023-10-24T14:31:08.494Z,0.93
2023-10-24T14:33:35.490Z,1.65
2023-10-24T14:36:02.723Z,1.10
2023-10-24T14:38:29.712Z,0.95
2023-10-24T14:40:58.664Z,1.30
2023-10-24T14:43:25.700Z,1.08
2023-10-24T14:45:52.877Z,1.70
2023-10-24T14:48:19.875Z,1.33
2023-10-24T14:50:46.859Z,0.85
2023-10-24T14:53:13.982Z,0.88
2023-10-24T14:55:40.918Z,1.42
2023-10-24T14:58:07.934Z,0.30
2023-10-24T15:00:37.177Z,1.15
2023-10-24T15:03:04.687Z,1.88
2023-10-24T15:05:31.762Z,2.03
2023-10-24T15:07:58.821Z,1.60
2023-10-24T15:10:25.816Z,0.77
2023-10-24T15:12:55.135Z,2.10
2023-10-24T15:15:22.117Z,1.48
2023-10-24T15:17:52.645Z,1.25
2023-10-24T15:20:20.416Z,1.73
2023-10-24T15:22:47.492Z,0.98
2023-10-24T15:25:14.766Z,0.77
2023-10-24T15:27:41.692Z,2.05
2023-10-24T15:30:10.764Z,2.10
2023-10-24T15:32:38.006Z,2.78
2023-10-24T15:35:07.936Z,2.17
2023-10-24T15:37:35.025Z,1.27
2023-10-24T15:40:01.988Z,2.80
2023-10-24T15:42:28.906Z,2.28
2023-10-24T15:44:59.292Z,1.38
2023-10-24T15:47:26.539Z,2.42
2023-10-24T15:49:56.506Z,1.20
2023-10-24T15:52:24.114Z,1.95
2023-10-24T15:54:51.376Z,2.00
2023-10-24T15:57:19.134Z,2.67
2023-10-24T15:59:46.199Z,1.10
2023-10-24T16:02:15.084Z,2.38
2023-10-24T16:04:42.478Z,2.05
2023-10-24T16:07:11.004Z,3.33
2023-10-24T16:09:37.968Z,1.45
2023-10-24T16:12:05.212Z,2.63
2023-10-24T16:14:32.212Z,1.77
2023-10-24T16:17:00.655Z,1.02
2023-10-24T16:19:27.736Z,1.52
2023-10-24T16:21:54.983Z,3.88
2023-10-24T16:24:21.993Z,1.20
2023-10-24T16:26:48.961Z,1.83
2023-10-24T16:29:15.942Z,3.63
2023-10-24T16:31:43.208Z,5.03
2023-10-24T16:34:10.184Z,2.30
2023-10-24T16:36:37.340Z,1.60
2023-10-24T16:39:05.618Z,3.53
2023-10-24T16:41:32.616Z,4.50
2023-10-24T16:43:59.656Z,5.38
2023-10-24T16:46:26.672Z,4.68
2023-10-24T16:48:53.910Z,3.85
2023-10-24T16:51:21.025Z,3.42
2023-10-24T16:53:48.978Z,4.93
2023-10-24T16:56:16.223Z,5.88
2023-10-24T16:58:43.348Z,7.22
2023-10-24T17:01:10.374Z,8.85
2023-10-24T17:03:38.141Z,7.85
2023-10-24T17:06:05.435Z,6.20
2023-10-24T17:08:33.199Z,6.15
2023-10-24T17:11:02.899Z,6.40
2023-10-24T17:13:30.079Z,6.38
2023-10-24T17:15:59.777Z,5.00
2023-10-24T17:18:27.051Z,5.90
2023-10-24T17:20:54.284Z,5.65
2023-10-24T17:23:28.622Z,4.82
2023-10-24T17:25:56.122Z,4.72
2023-10-24T17:28:23.168Z,4.85
2023-10-24T17:30:50.123Z,2.72
2023-10-24T17:33:17.148Z,3.83
2023-10-24T17:35:44.742Z,1.83
2023-10-24T17:38:11.849Z,3.35
2023-10-24T17:40:43.813Z,2.03
2023-10-24T17:43:10.801Z,4.00
2023-10-24T17:45:41.844Z,1.65
2023-10-24T17:48:08.885Z,1.92
2023-10-24T17:50:38.516Z,2.67
2023-10-24T17:53:06.642Z,10.48
2023-10-24T17:55:37.045Z,9.02
2023-10-24T17:58:04.992Z,4.50
2023-10-24T18:00:36.775Z,3.15
2023-10-24T18:03:04.247Z,2.53
2023-10-24T18:05:31.571Z,2.15
2023-10-24T18:08:00.633Z,3.00
2023-10-24T18:10:27.791Z,2.10
2023-10-24T18:12:54.836Z,1.83
2023-10-24T18:15:22.237Z,3.22
2023-10-24T18:17:51.110Z,2.60
2023-10-24T18:20:18.473Z,2.38
2023-10-24T18:22:45.495Z,3.42
2023-10-24T18:25:12.615Z,2.47
2023-10-24T18:27:39.673Z,2.40
2023-10-24T18:30:07.266Z,1.88
2023-10-24T18:32:35.300Z,2.35
2023-10-24T18:35:02.562Z,2.72
2023-10-24T18:37:29.600Z,1.85
2023-10-24T18:39:56.550Z,2.03
2023-10-24T18:42:26.531Z,1.20
2023-10-24T18:44:53.956Z,1.80
2023-10-24T18:47:21.014Z,1.33
2023-10-24T18:49:48.813Z,2.28
2023-10-24T18:52:16.027Z,1.10
2023-10-24T18:54:43.840Z,1.92
2023-10-24T18:57:11.109Z,1.70
2023-10-24T18:59:38.103Z,2.60
2023-10-24T19:02:05.339Z,1.75
2023-10-24T19:04:36.570Z,1.38
2023-10-24T19:07:03.944Z,2.97
2023-10-24T19:09:31.170Z,2.75
2023-10-24T19:11:58.438Z,2.63
2023-10-24T19:14:25.729Z,2.55
2023-10-24T19:16:53.084Z,1.58
2023-10-24T19:19:20.227Z,2.08
2023-10-24T19:21:47.471Z,2.42
2023-10-24T19:24:15.184Z,2.20
2023-10-24T19:26:45.940Z,1.50
2023-10-24T19:29:13.108Z,1.25
2023-10-24T19:31:40.399Z,2.35
2023-10-24T19:34:07.921Z,1.50
2023-10-24T19:36:36.127Z,1.02
2023-10-24T19:39:04.929Z,1.30
2023-10-24T19:41:32.417Z,1.05
2023-10-24T19:43:59.564Z,0.77
2023-10-24T19:46:32.109Z,1.20
2023-10-24T19:48:59.354Z,1.15
2023-10-24T19:51:26.516Z,1.65
2023-10-24T19:53:53.731Z,1.20
2023-10-24T19:56:22.335Z,1.73
2023-10-24T19:58:51.006Z,1.42
2023-10-24T20:01:20.255Z,2.78
2023-10-24T20:03:47.651Z,2.25
2023-10-24T20:06:15.424Z,2.08
2023-10-24T20:08:45.014Z,5.25
2023-10-24T20:12:33.711Z,4.90
2023-10-24T20:14:02.178Z,2.22
2023-10-24T20:16:32.266Z,3.15
2023-10-24T20:18:59.908Z,2.65
2023-10-24T20:21:27.515Z,2.63
2023-10-24T20:23:54.951Z,3.80
2023-10-24T20:26:26.414Z,2.92
2023-10-24T20:28:54.144Z,1.83
2023-10-24T20:31:21.470Z,2.65
2023-10-24T20:33:48.466Z,3.17
2023-10-24T20:36:16.285Z,1.60
2023-10-24T20:38:43.305Z,3.10
2023-10-24T20:41:12.229Z,2.10
2023-10-24T20:43:39.464Z,2.22
2023-10-24T20:46:06.508Z,1.80
2023-10-24T20:48:33.837Z,2.17
2023-10-24T20:51:00.818Z,2.38
2023-10-24T20:53:28.781Z,2.75
2023-10-24T20:55:59.266Z,4.20
2023-10-24T20:58:26.306Z,5.72
2023-10-24T21:00:53.517Z,4.13
2023-10-24T21:03:20.893Z,2.80
2023-10-24T21:05:50.546Z,2.22
2023-10-24T21:08:17.508Z,2.42
2023-10-24T21:10:45.591Z,1.90
2023-10-24T21:13:13.171Z,3.38
2023-10-24T21:15:41.246Z,3.28
2023-10-24T21:18:08.439Z,2.90
2023-10-24T21:20:38.553Z,1.70
2023-10-24T21:23:05.579Z,1.67
2023-10-24T21:25:33.500Z,1.63
2023-10-24T21:28:00.569Z,2.13
2023-10-24T21:30:27.717Z,4.40
2023-10-24T21:32:54.890Z,1.70
2023-10-24T21:35:21.909Z,1.77
2023-10-24T21:37:48.957Z,2.33
2023-10-24T21:40:15.978Z,4.47
2023-10-24T21:42:43.155Z,4.43
2023-10-24T21:45:10.712Z,2.30
2023-10-24T21:47:37.714Z,1.67
2023-10-24T21:50:05.380Z,1.85
2023-10-24T21:52:32.288Z,2.40
2023-10-24T21:54:59.340Z,1.83
2023-10-24T21:57:26.338Z,2.55
2023-10-24T21:59:53.633Z,1.98
2023-10-24T22:02:20.701Z,2.97
2023-10-24T22:04:47.758Z,1.63
2023-10-24T22:07:14.938Z,1.58
2023-10-24T22:09:42.204Z,1.30
2023-10-24T22:12:09.778Z,1.23
2023-10-24T22:14:37.268Z,1.38
2023-10-24T22:17:04.759Z,2.45
2023-10-24T22:19:31.875Z,2.88
2023-10-24T22:21:59.115Z,4.00
2023-10-24T22:24:26.212Z,1.08
2023-10-24T22:26:53.186Z,1.70
2023-10-24T22:29:20.243Z,2.03
2023-10-24T22:31:47.240Z,1.50
2023-10-24T22:34:14.336Z,1.60
2023-10-24T22:36:41.426Z,1.60
2023-10-24T22:39:08.539Z,1.73
2023-10-24T22:41:35.608Z,2.38
2023-10-24T22:44:02.590Z,2.30
2023-10-24T22:46:29.898Z,1.45
2023-10-24T22:48:57.089Z,2.90
2023-10-24T22:51:24.077Z,1.38
2023-10-24T22:53:51.275Z,1.30
2023-10-24T22:56:20.344Z,1.95
2023-10-24T22:58:47.415Z,2.10
2023-10-24T23:01:15.030Z,2.70
2023-10-24T23:03:42.505Z,2.75
2023-10-24T23:06:09.694Z,1.63
2023-10-24T23:08:36.681Z,2.15
2023-10-24T23:11:08.077Z,3.67
2023-10-24T23:13:35.674Z,4.15
2023-10-24T23:16:08.357Z,1.83
2023-10-24T23:18:41.712Z,1.98
2023-10-24T23:21:09.093Z,1.50
2023-10-24T23:23:36.121Z,1.58
2023-10-24T23:26:03.214Z,1.63
2023-10-24T23:28:30.404Z,1.83
2023-10-24T23:31:00.522Z,2.08
2023-10-24T23:33:27.510Z,3.17
2023-10-24T23:35:54.674Z,1.35
2023-10-24T23:38:21.725Z,3.33
2023-10-24T23:40:49.368Z,2.63
2023-10-24T23:43:16.573Z,1.75
2023-10-24T23:45:43.826Z,2.15
2023-10-24T23:48:10.965Z,2.15
2023-10-24T23:50:38.275Z,2.05
2023-10-24T23:53:05.329Z,3.80
2023-10-24T23:55:37.404Z,3.90
2023-10-24T23:58:05.441Z,4.40
